createdAt,value
2023-01-09T00:00:52.774Z,78.66
2023-01-09T00:03:22.749Z,78.89
2023-01-09T00:05:52.744Z,79.03
2023-01-09T00:08:22.757Z,79.18
2023-01-09T00:10:52.877Z,79.35
2023-01-09T00:13:23.131Z,79.28
2023-01-09T00:15:53.433Z,79.38
2023-01-09T00:18:23.685Z,79.45
2023-01-09T00:20:53.937Z,79.29
2023-01-09T00:23:24.204Z,79.44
2023-01-09T00:26:10.475Z,79.40
2023-01-09T00:28:41.744Z,79.78
2023-01-09T00:31:12.702Z,79.51
2023-01-09T00:34:11.629Z,79.08
2023-01-09T00:36:41.834Z,79.80
2023-01-09T00:39:11.817Z,80.21
2023-01-09T00:41:48.573Z,80.16
2023-01-09T00:44:44.795Z,80.29
2023-01-09T00:47:29.083Z,80.40
2023-01-09T00:50:05.592Z,80.77
2023-01-09T00:52:39.026Z,80.67
2023-01-09T00:55:09.996Z,80.87
2023-01-09T00:57:40.219Z,80.92
2023-01-09T01:00:11.458Z,80.97
2023-01-09T01:02:41.811Z,81.08
2023-01-09T01:05:30.031Z,81.00
2023-01-09T01:08:00.159Z,81.21
2023-01-09T01:10:29.914Z,79.99
2023-01-09T01:13:00.097Z,81.06
2023-01-09T01:15:30.998Z,80.74
2023-01-09T01:18:01.454Z,80.79
2023-01-09T01:20:31.657Z,80.83
2023-01-09T01:23:01.375Z,79.89
2023-01-09T01:25:31.108Z,80.77
2023-01-09T01:28:01.235Z,80.66
2023-01-09T01:30:32.533Z,80.10
2023-01-09T01:33:02.652Z,80.58
2023-01-09T01:35:32.584Z,80.91
2023-01-09T01:38:03.095Z,80.58
2023-01-09T01:40:33.652Z,80.52
2023-01-09T01:43:03.829Z,80.49
2023-01-09T01:45:35.456Z,80.45
2023-01-09T01:48:14.393Z,79.93
2023-01-09T01:51:02.228Z,80.16
2023-01-09T01:53:43.055Z,80.03
2023-01-09T01:56:19.185Z,80.14
2023-01-09T01:59:09.923Z,79.78
2023-01-09T02:01:44.608Z,80.10
2023-01-09T02:04:15.184Z,80.72
2023-01-09T02:06:46.988Z,80.60
2023-01-09T02:09:19.494Z,80.58
2023-01-09T02:11:53.498Z,80.47
2023-01-09T02:14:27.745Z,80.79
2023-01-09T02:17:22.317Z,80.73
2023-01-09T02:19:53.693Z,81.23
2023-01-09T02:22:35.671Z,81.42
2023-01-09T02:25:23.883Z,81.67
2023-01-09T02:28:12.159Z,81.44
2023-01-09T02:31:19.095Z,80.97
2023-01-09T02:34:17.594Z,80.52
2023-01-09T02:36:53.581Z,80.75
2023-01-09T02:39:41.899Z,80.92
2023-01-09T02:42:28.256Z,80.91
2023-01-09T02:44:58.587Z,81.37
2023-01-09T02:47:31.717Z,81.87
2023-01-09T02:50:05.410Z,81.78
2023-01-09T02:52:46.386Z,81.48
2023-01-09T02:55:41.139Z,81.89
2023-01-09T02:58:25.779Z,82.50
2023-01-09T03:01:46.021Z,82.16
2023-01-09T03:04:39.969Z,83.06
2023-01-09T03:07:28.757Z,82.76
2023-01-09T03:10:07.804Z,81.93
2023-01-09T03:12:39.948Z,82.80
2023-01-09T03:15:14.139Z,82.43
2023-01-09T03:17:49.135Z,82.37
2023-01-09T03:20:24.357Z,82.40
2023-01-09T03:23:01.679Z,82.29
2023-01-09T03:25:33.242Z,82.23
2023-01-09T03:28:09.493Z,82.96
2023-01-09T03:30:39.651Z,83.04
2023-01-09T03:33:09.866Z,82.98
2023-01-09T03:35:39.605Z,82.22
2023-01-09T03:38:09.470Z,83.10
2023-01-09T03:40:39.122Z,82.02
2023-01-09T03:43:09.173Z,82.65
2023-01-09T03:45:39.776Z,82.56
2023-01-09T03:48:10.035Z,82.96
2023-01-09T03:50:39.773Z,82.33
2023-01-09T03:53:09.795Z,83.28
2023-01-09T03:55:39.338Z,82.58
2023-01-09T03:58:09.138Z,83.40
2023-01-09T04:00:40.694Z,83.33
2023-01-09T04:03:11.492Z,83.15
2023-01-09T04:05:41.779Z,83.16
2023-01-09T04:08:12.092Z,83.26
2023-01-09T04:10:42.404Z,83.31
2023-01-09T04:13:12.464Z,83.65
2023-01-09T04:15:42.189Z,83.04
2023-01-09T04:18:12.462Z,83.53
2023-01-09T04:20:43.119Z,83.66
2023-01-09T04:23:13.351Z,83.31
2023-01-09T04:26:04.204Z,84.30
2023-01-09T04:28:34.775Z,84.95
2023-01-09T04:31:06.422Z,85.14
2023-01-09T04:33:36.501Z,85.07
2023-01-09T04:36:07.066Z,85.57
2023-01-09T04:38:37.223Z,85.16
2023-01-09T04:41:07.819Z,84.95
2023-01-09T04:43:37.966Z,84.57
2023-01-09T04:46:08.256Z,84.49
2023-01-09T04:48:37.948Z,83.64
2023-01-09T04:51:08.110Z,84.24
2023-01-09T04:53:37.698Z,83.74
2023-01-09T04:56:07.673Z,84.55
2023-01-09T04:58:37.973Z,84.95
2023-01-09T05:01:07.824Z,84.09
2023-01-09T05:03:37.923Z,84.68
2023-01-09T05:06:08.391Z,85.29
2023-01-09T05:08:38.690Z,85.67
2023-01-09T05:11:08.292Z,84.82
2023-01-09T05:13:38.082Z,85.43
2023-01-09T05:16:08.770Z,85.22
2023-01-09T05:18:39.179Z,85.06
2023-01-09T05:21:09.071Z,84.91
2023-01-09T05:23:39.209Z,86.15
2023-01-09T05:26:09.878Z,86.27
2023-01-09T05:28:40.354Z,85.43
2023-01-09T05:31:10.350Z,85.81
2023-01-09T05:33:40.451Z,85.62
2023-01-09T05:36:10.765Z,85.33
2023-01-09T05:38:40.489Z,84.54
2023-01-09T05:41:10.593Z,84.94
2023-01-09T05:43:40.687Z,85.42
2023-01-09T05:46:10.744Z,85.25
2023-01-09T05:48:40.334Z,84.49
2023-01-09T05:51:10.203Z,84.96
2023-01-09T05:53:40.358Z,85.38
2023-01-09T05:56:11.765Z,85.52
2023-01-09T05:58:42.177Z,85.09
2023-01-09T06:01:12.376Z,84.78
2023-01-09T06:03:42.068Z,84.34
2023-01-09T06:06:12.025Z,85.08
2023-01-09T06:08:42.234Z,84.64
2023-01-09T06:11:12.412Z,84.97
2023-01-09T06:13:42.136Z,84.29
2023-01-09T06:16:12.311Z,85.41
2023-01-09T06:18:41.989Z,84.84
2023-01-09T06:21:12.035Z,85.40
2023-01-09T06:23:42.426Z,85.49
2023-01-09T06:26:12.681Z,85.41
2023-01-09T06:28:44.571Z,84.68
2023-01-09T06:31:14.978Z,84.93
2023-01-09T06:33:45.244Z,85.01
2023-01-09T06:36:15.886Z,85.11
2023-01-09T06:38:46.257Z,84.87
2023-01-09T06:41:16.511Z,84.62
2023-01-09T06:43:46.988Z,84.55
2023-01-09T06:46:17.241Z,84.28
2023-01-09T06:48:47.320Z,84.26
2023-01-09T06:51:17.426Z,84.13
2023-01-09T06:53:47.877Z,83.86
2023-01-09T06:56:18.132Z,83.92
2023-01-09T06:58:47.820Z,83.45
2023-01-09T07:01:17.888Z,84.26
2023-01-09T07:03:49.554Z,84.42
2023-01-09T07:06:21.210Z,84.34
2023-01-09T07:08:51.378Z,84.39
2023-01-09T07:11:21.611Z,84.51
2023-01-09T07:13:51.567Z,83.69
2023-01-09T07:16:21.419Z,84.36
2023-01-09T07:18:51.557Z,84.15
2023-01-09T07:21:21.506Z,84.19
2023-01-09T07:23:52.122Z,84.53
2023-01-09T07:26:22.237Z,84.80
2023-01-09T07:28:52.367Z,84.87
2023-01-09T07:31:22.599Z,85.03
2023-01-09T07:33:52.348Z,84.27
2023-01-09T07:36:22.320Z,85.12
2023-01-09T07:38:52.584Z,85.08
2023-01-09T07:41:22.300Z,84.44
2023-01-09T07:43:52.200Z,85.28
2023-01-09T07:46:22.415Z,85.34
2023-01-09T07:48:52.682Z,85.16
2023-01-09T07:51:22.367Z,84.61
2023-01-09T07:53:52.282Z,85.36
2023-01-09T07:56:22.655Z,85.17
2023-01-09T07:58:52.750Z,85.12
2023-01-09T08:01:22.928Z,85.76
2023-01-09T08:03:53.328Z,86.24
2023-01-09T08:06:23.000Z,85.28
2023-01-09T08:08:53.794Z,85.79
2023-01-09T08:11:24.105Z,85.52
2023-01-09T08:13:54.136Z,85.00
2023-01-09T08:16:24.259Z,85.40
2023-01-09T08:18:54.450Z,85.41
2023-01-09T08:21:24.597Z,85.24
2023-01-09T08:23:54.848Z,85.48
2023-01-09T08:26:24.768Z,84.70
2023-01-09T08:28:54.775Z,85.37
2023-01-09T08:31:24.926Z,85.46
2023-01-09T08:33:55.209Z,85.44
2023-01-09T08:36:24.997Z,84.83
2023-01-09T08:38:55.282Z,85.57
2023-01-09T08:41:43.981Z,85.22
2023-01-09T08:44:32.243Z,85.70
2023-01-09T08:47:08.163Z,85.40
2023-01-09T08:49:40.396Z,85.42
2023-01-09T08:52:10.602Z,85.63
2023-01-09T08:54:41.132Z,84.98
2023-01-09T08:57:11.346Z,85.61
2023-01-09T08:59:41.545Z,85.62
2023-01-09T09:02:11.581Z,84.88
2023-01-09T09:04:41.783Z,85.78
2023-01-09T09:07:11.750Z,85.65
2023-01-09T09:09:41.992Z,85.67
2023-01-09T09:12:11.633Z,84.98
2023-01-09T09:14:59.619Z,85.60
2023-01-09T09:17:30.200Z,85.02
2023-01-09T09:20:01.453Z,85.31
2023-01-09T09:22:32.258Z,85.14
2023-01-09T09:25:02.871Z,85.21
2023-01-09T09:27:34.096Z,84.94
2023-01-09T09:30:04.691Z,85.32
2023-01-09T09:32:34.875Z,85.01
2023-01-09T09:35:05.226Z,84.46
2023-01-09T09:37:35.772Z,84.40
2023-01-09T09:40:17.849Z,83.65
2023-01-09T09:43:31.433Z,83.86
2023-01-09T09:46:10.512Z,83.22
2023-01-09T09:48:51.720Z,83.20
2023-01-09T09:51:36.250Z,83.21
2023-01-09T09:54:18.265Z,82.82
2023-01-09T09:57:03.838Z,82.34
2023-01-09T09:59:39.968Z,82.40
2023-01-09T10:02:28.442Z,82.67
2023-01-09T10:05:11.364Z,82.63
2023-01-09T10:07:47.881Z,81.98
2023-01-09T10:10:45.070Z,81.32
2023-01-09T10:13:38.416Z,81.41
2023-01-09T10:16:21.461Z,81.33
2023-01-09T10:19:17.521Z,81.44
2023-01-09T10:22:16.635Z,81.08
2023-01-09T10:25:10.622Z,81.61
2023-01-09T10:28:14.466Z,81.32
2023-01-09T10:30:47.335Z,81.33
2023-01-09T10:33:39.100Z,80.68
2023-01-09T10:36:32.859Z,80.20
2023-01-09T10:39:06.707Z,80.26
2023-01-09T10:41:50.938Z,79.48
2023-01-09T10:44:34.732Z,79.45
2023-01-09T10:47:20.273Z,79.40
2023-01-09T10:49:52.900Z,79.04
2023-01-09T10:52:35.025Z,77.69
2023-01-09T10:55:18.921Z,76.57
2023-01-09T10:57:54.869Z,76.46
2023-01-09T11:00:27.096Z,76.59
2023-01-09T11:02:57.463Z,75.50
2023-01-09T11:05:32.562Z,76.58
2023-01-09T11:08:08.941Z,75.06
2023-01-09T11:11:00.498Z,75.18
2023-01-09T11:13:33.793Z,74.51
2023-01-09T11:16:05.690Z,74.87
2023-01-09T11:18:53.646Z,73.97
2023-01-09T11:21:41.715Z,74.94
2023-01-09T11:24:22.491Z,74.79
2023-01-09T11:26:54.940Z,74.64
2023-01-09T11:29:28.301Z,73.33
2023-01-09T11:32:04.961Z,73.29
2023-01-09T11:34:38.116Z,72.92
2023-01-09T11:37:15.208Z,72.67
2023-01-09T11:39:49.325Z,71.87
2023-01-09T11:42:45.918Z,72.90
2023-01-09T11:45:20.142Z,70.85
2023-01-09T11:47:50.329Z,70.02
2023-01-09T11:50:24.580Z,69.53
2023-01-09T11:53:18.561Z,69.80
2023-01-09T11:55:52.921Z,69.03
2023-01-09T11:58:23.969Z,67.92
2023-01-09T12:01:02.151Z,68.69
2023-01-09T12:03:55.862Z,68.66
2023-01-09T12:06:35.399Z,67.00
2023-01-09T12:09:13.279Z,67.33
2023-01-09T12:12:04.609Z,67.27
2023-01-09T12:14:40.651Z,67.02
2023-01-09T12:17:48.524Z,66.67
2023-01-09T12:20:52.784Z,66.87
2023-01-09T12:23:54.557Z,65.65
2023-01-09T12:26:31.316Z,65.83
2023-01-09T12:29:16.718Z,65.11
2023-01-09T12:31:59.320Z,65.29
2023-01-09T12:34:51.211Z,64.49
2023-01-09T12:37:45.750Z,64.29
2023-01-09T12:40:18.809Z,64.17
2023-01-09T12:43:21.813Z,63.94
2023-01-09T12:45:58.834Z,63.13
2023-01-09T12:48:53.574Z,63.90
2023-01-09T12:52:02.571Z,64.87
2023-01-09T12:55:14.333Z,63.30
2023-01-09T12:57:52.606Z,62.41
2023-01-09T13:00:31.613Z,61.95
2023-01-09T13:03:17.901Z,62.22
2023-01-09T13:05:51.461Z,61.91
2023-01-09T13:08:31.882Z,61.71
2023-01-09T13:11:21.191Z,62.22
2023-01-09T13:13:58.179Z,61.84
2023-01-09T13:16:56.956Z,61.84
2023-01-09T13:19:35.355Z,60.88
2023-01-09T13:22:08.184Z,57.68
2023-01-09T13:25:10.502Z,59.16
2023-01-09T13:27:42.982Z,60.55
2023-01-09T13:30:21.034Z,58.65
2023-01-09T13:32:58.827Z,59.39
2023-01-09T13:35:29.376Z,57.91
2023-01-09T13:37:59.537Z,58.58
2023-01-09T13:40:31.648Z,58.29
2023-01-09T13:43:11.029Z,58.57
2023-01-09T13:45:41.974Z,57.73
2023-01-09T13:48:21.281Z,58.61
2023-01-09T13:50:52.393Z,56.62
2023-01-09T13:53:26.307Z,56.95
2023-01-09T13:55:59.531Z,54.83
2023-01-09T13:58:32.988Z,55.97
2023-01-09T14:01:24.653Z,56.30
2023-01-09T14:04:24.873Z,55.61
2023-01-09T14:07:19.034Z,56.43
2023-01-09T14:09:57.441Z,55.23
2023-01-09T14:12:30.030Z,55.35
2023-01-09T14:15:05.262Z,56.84
2023-01-09T14:17:40.099Z,57.95
2023-01-09T14:20:28.609Z,56.66
2023-01-09T14:25:54.091Z,55.80
2023-01-09T14:28:29.711Z,53.95
2023-01-09T14:30:59.768Z,53.94
2023-01-09T14:33:34.050Z,54.34
2023-01-09T14:36:12.816Z,54.26
2023-01-09T14:38:45.487Z,52.48
2023-01-09T14:41:47.411Z,54.08
2023-01-09T14:44:32.994Z,53.67
2023-01-09T14:47:28.692Z,55.60
2023-01-09T14:50:17.269Z,55.76
2023-01-09T14:52:51.496Z,55.72
2023-01-09T14:55:47.888Z,57.75
2023-01-09T14:58:23.414Z,56.61
2023-01-09T15:01:24.108Z,54.04
2023-01-09T15:04:00.323Z,52.07
2023-01-09T15:06:34.901Z,52.39
2023-01-09T15:09:17.271Z,50.77
2023-01-09T15:11:48.026Z,49.13
2023-01-09T15:14:32.683Z,49.87
2023-01-09T15:17:03.651Z,51.82
2023-01-09T15:19:34.105Z,50.69
2023-01-09T15:22:07.455Z,48.82
2023-01-09T15:24:37.672Z,48.43
2023-01-09T15:27:16.619Z,49.67
2023-01-09T15:29:46.933Z,48.23
2023-01-09T15:32:29.835Z,49.02
2023-01-09T15:35:00.202Z,50.82
2023-01-09T15:37:39.278Z,51.75
2023-01-09T15:40:22.935Z,51.98
2023-01-09T15:42:58.131Z,50.34
2023-01-09T15:45:36.568Z,50.70
2023-01-09T15:48:33.286Z,52.44
2023-01-09T15:51:18.749Z,53.16
2023-01-09T15:53:53.738Z,53.11
2023-01-09T15:56:26.188Z,50.88
2023-01-09T15:58:57.332Z,51.85
2023-01-09T16:01:36.196Z,50.38
2023-01-09T16:04:10.605Z,49.92
2023-01-09T16:06:54.209Z,49.34
2023-01-09T16:09:32.460Z,48.50
2023-01-09T16:12:04.952Z,47.00
2023-01-09T16:14:46.875Z,48.15
2023-01-09T16:17:19.679Z,50.41
2023-01-09T16:19:52.452Z,50.75
2023-01-09T16:22:26.805Z,50.32
2023-01-09T16:25:00.165Z,50.94
2023-01-09T16:27:35.062Z,51.91
2023-01-09T16:30:08.539Z,53.23
2023-01-09T16:32:49.281Z,53.07
2023-01-09T16:35:22.886Z,51.51
2023-01-09T16:37:53.079Z,50.90
2023-01-09T16:40:28.246Z,47.82
2023-01-09T16:43:08.232Z,46.98
2023-01-09T16:45:41.369Z,48.18
2023-01-09T16:48:17.843Z,48.21
2023-01-09T16:50:48.364Z,48.32
2023-01-09T16:53:23.713Z,48.05
2023-01-09T16:55:55.610Z,48.69
2023-01-09T16:58:33.427Z,47.97
2023-01-09T17:01:03.614Z,48.10
2023-01-09T17:03:34.129Z,47.54
2023-01-09T17:06:06.116Z,46.35
2023-01-09T17:08:39.636Z,47.20
2023-01-09T17:11:20.442Z,47.86
2023-01-09T17:13:51.291Z,46.78
2023-01-09T17:16:21.565Z,46.45
2023-01-09T17:18:52.174Z,47.11
2023-01-09T17:21:24.892Z,46.36
2023-01-09T17:24:13.025Z,46.51
2023-01-09T17:27:03.909Z,46.68
2023-01-09T17:29:36.194Z,45.92
2023-01-09T17:32:06.672Z,46.35
2023-01-09T17:34:37.156Z,45.11
2023-01-09T17:37:07.468Z,45.30
2023-01-09T17:39:37.679Z,45.18
2023-01-09T17:42:07.636Z,45.80
2023-01-09T17:44:38.300Z,45.90
2023-01-09T17:47:08.585Z,44.07
2023-01-09T17:49:38.839Z,44.16
2023-01-09T17:52:09.923Z,46.33
2023-01-09T17:54:40.390Z,46.47
2023-01-09T17:57:17.608Z,46.14
2023-01-09T17:59:47.884Z,46.39
2023-01-09T18:02:20.089Z,46.57
2023-01-09T18:04:50.413Z,46.61
2023-01-09T18:07:21.845Z,47.09
2023-01-09T18:09:52.079Z,45.35
2023-01-09T18:12:22.392Z,47.31
2023-01-09T18:14:53.829Z,47.06
2023-01-09T18:17:24.347Z,47.36
2023-01-09T18:19:54.281Z,46.28
2023-01-09T18:22:24.446Z,48.09
2023-01-09T18:24:54.603Z,49.15
2023-01-09T18:27:24.510Z,48.29
2023-01-09T18:29:54.490Z,49.20
2023-01-09T18:32:27.601Z,49.23
2023-01-09T18:34:57.970Z,48.37
2023-01-09T18:37:28.220Z,49.17
2023-01-09T18:39:58.618Z,48.87
2023-01-09T18:42:28.813Z,50.53
2023-01-09T18:44:58.744Z,52.44
2023-01-09T18:47:29.302Z,52.67
2023-01-09T18:49:59.455Z,52.69
2023-01-09T18:52:30.128Z,53.33
2023-01-09T18:55:00.265Z,52.83
2023-01-09T18:57:30.203Z,52.96
2023-01-09T19:00:00.258Z,52.85
2023-01-09T19:02:30.569Z,52.61
2023-01-09T19:05:00.835Z,52.83
2023-01-09T19:07:31.077Z,53.93
2023-01-09T19:10:01.293Z,54.26
2023-01-09T19:12:31.487Z,54.91
2023-01-09T19:15:01.634Z,54.49
2023-01-09T19:17:32.598Z,55.14
2023-01-09T19:20:02.885Z,55.11
2023-01-09T19:22:33.111Z,55.88
2023-01-09T19:25:03.282Z,55.81
2023-01-09T19:27:33.438Z,55.81
2023-01-09T19:30:03.531Z,55.26
2023-01-09T19:32:33.677Z,56.10
2023-01-09T19:35:03.989Z,56.26
2023-01-09T19:37:36.191Z,56.72
2023-01-09T19:40:06.828Z,56.91
2023-01-09T19:42:37.386Z,56.63
2023-01-09T19:45:08.175Z,56.65
2023-01-09T19:47:38.587Z,56.70
2023-01-09T19:50:09.627Z,56.53
2023-01-09T19:52:39.991Z,56.99
2023-01-09T19:55:12.377Z,57.25
2023-01-09T19:57:44.329Z,57.48
2023-01-09T20:00:16.326Z,58.00
2023-01-09T20:02:46.571Z,58.39
2023-01-09T20:05:16.789Z,57.81
2023-01-09T20:07:46.771Z,58.07
2023-01-09T20:10:18.586Z,58.65
2023-01-09T20:12:48.901Z,58.82
2023-01-09T20:15:19.100Z,58.58
2023-01-09T20:17:49.356Z,58.89
2023-01-09T20:20:22.449Z,59.34
2023-01-09T20:22:52.568Z,59.97
2023-01-09T20:25:21.974Z,58.57
2023-01-09T20:27:52.108Z,59.51
2023-01-09T20:30:22.464Z,59.27
2023-01-09T20:32:52.662Z,60.21
2023-01-09T20:35:24.245Z,60.86
2023-01-09T20:37:55.045Z,61.82
2023-01-09T20:40:25.215Z,62.34
2023-01-09T20:42:57.876Z,62.79
2023-01-09T20:45:28.665Z,62.28
2023-01-09T20:47:59.252Z,61.67
2023-01-09T20:50:29.740Z,61.10
2023-01-09T20:52:59.964Z,62.24
2023-01-09T20:55:30.298Z,62.66
2023-01-09T20:57:59.704Z,62.09
2023-01-09T21:00:33.177Z,62.75
2023-01-09T21:03:05.499Z,62.71
2023-01-09T21:05:35.742Z,62.53
2023-01-09T21:08:06.049Z,62.97
2023-01-09T21:10:36.281Z,63.48
2023-01-09T21:13:06.492Z,63.54
2023-01-09T21:15:40.020Z,63.96
2023-01-09T21:18:10.252Z,64.40
2023-01-09T21:20:41.552Z,64.30
2023-01-09T21:23:12.323Z,64.85
2023-01-09T21:25:46.581Z,64.84
2023-01-09T21:28:19.621Z,65.66
2023-01-09T21:30:51.174Z,65.89
2023-01-09T21:33:23.341Z,66.28
2023-01-09T21:35:55.965Z,66.64
2023-01-09T21:38:27.702Z,67.11
2023-01-09T21:40:57.977Z,67.23
2023-01-09T21:43:48.372Z,67.65
2023-01-09T21:46:38.943Z,67.98
2023-01-09T21:49:09.169Z,68.51
2023-01-09T21:51:42.615Z,68.74
2023-01-09T21:54:13.284Z,68.84
2023-01-09T21:56:43.602Z,69.12
2023-01-09T21:59:14.541Z,69.73
2023-01-09T22:01:45.661Z,70.24
2023-01-09T22:04:17.926Z,70.49
2023-01-09T22:06:48.302Z,71.00
2023-01-09T22:09:18.435Z,71.35
2023-01-09T22:11:48.905Z,71.55
2023-01-09T22:14:20.616Z,71.59
2023-01-09T22:16:51.076Z,71.98
2023-01-09T22:19:21.673Z,71.93
2023-01-09T22:21:51.971Z,72.29
2023-01-09T22:24:22.911Z,72.40
2023-01-09T22:26:53.176Z,72.69
2023-01-09T22:29:23.542Z,72.87
2023-01-09T22:31:53.896Z,73.08
2023-01-09T22:34:24.400Z,73.33
2023-01-09T22:36:54.517Z,73.86
2023-01-09T22:39:24.879Z,73.96
2023-01-09T22:41:56.370Z,74.00
2023-01-09T22:44:26.664Z,73.98
2023-01-09T22:46:58.578Z,74.04
2023-01-09T22:49:33.514Z,74.24
2023-01-09T22:52:11.649Z,74.48
2023-01-09T22:54:41.796Z,74.86
2023-01-09T22:57:11.750Z,74.85
2023-01-09T22:59:41.806Z,75.04
2023-01-09T23:02:11.306Z,74.87
2023-01-09T23:04:41.254Z,75.50
2023-01-09T23:07:11.496Z,75.35
2023-01-09T23:09:40.981Z,74.91
2023-01-09T23:12:11.889Z,75.36
2023-01-09T23:14:42.248Z,75.73
2023-01-09T23:17:13.253Z,75.87
2023-01-09T23:19:43.725Z,75.73
2023-01-09T23:22:14.460Z,76.14
2023-01-09T23:24:44.645Z,76.28
2023-01-09T23:27:14.959Z,76.25
2023-01-09T23:29:45.207Z,76.28
2023-01-09T23:32:15.429Z,76.39
2023-01-09T23:34:46.461Z,76.47
2023-01-09T23:37:17.925Z,76.42
2023-01-09T23:39:48.124Z,76.50
2023-01-09T23:42:36.835Z,76.65
2023-01-09T23:45:06.646Z,76.01
2023-01-09T23:47:36.667Z,76.86
2023-01-09T23:50:08.183Z,76.83
2023-01-09T23:52:38.672Z,76.92
2023-01-09T23:55:09.319Z,77.08
2023-01-09T23:57:39.622Z,77.24
